createdAt,value
2018-12-07T00:03:12.623Z,1.83
2018-12-07T00:08:18.383Z,1.60
2018-12-07T00:13:24.081Z,2.10
2018-12-07T00:18:29.636Z,1.50
2018-12-07T00:23:35.024Z,1.90
2018-12-07T00:28:40.743Z,2.23
2018-12-07T00:33:46.331Z,2.13
2018-12-07T00:38:51.845Z,2.50
2018-12-07T00:43:57.272Z,2.50
2018-12-07T00:49:02.985Z,2.37
2018-12-07T00:54:08.627Z,2.00
2018-12-07T00:59:13.981Z,1.70
2018-12-07T01:04:19.623Z,1.43
2018-12-07T01:09:25.059Z,1.90
2018-12-07T01:14:30.623Z,2.20
2018-12-07T01:19:36.180Z,1.80
2018-12-07T01:24:41.658Z,2.00
2018-12-07T01:29:47.068Z,2.17
2018-12-07T01:34:52.389Z,1.83
2018-12-07T01:39:58.020Z,1.53
2018-12-07T01:45:04.079Z,1.40
2018-12-07T01:50:09.617Z,1.27
2018-12-07T01:55:14.974Z,1.03
2018-12-07T02:00:21.055Z,1.33
2018-12-07T02:05:26.535Z,1.50
2018-12-07T02:10:32.449Z,1.20
2018-12-07T02:15:38.132Z,1.20
2018-12-07T02:20:43.859Z,1.30
2018-12-07T02:25:49.329Z,1.10
2018-12-07T02:30:54.728Z,1.10
2018-12-07T02:36:00.582Z,1.07
2018-12-07T02:41:05.976Z,0.90
2018-12-07T02:46:11.447Z,0.73
2018-12-07T02:51:16.966Z,0.87
2018-12-07T02:56:22.366Z,0.40
2018-12-07T03:01:28.145Z,0.80
2018-12-07T03:06:33.703Z,1.00
2018-12-07T03:11:40.300Z,0.77
2018-12-07T03:16:45.816Z,0.80
2018-12-07T03:21:51.475Z,0.90
2018-12-07T03:26:56.955Z,0.73
2018-12-07T03:32:02.536Z,0.80
2018-12-07T03:37:08.011Z,0.83
2018-12-07T03:42:13.812Z,0.80
2018-12-07T03:47:19.684Z,0.70
2018-12-07T03:52:25.131Z,0.93
2018-12-07T03:57:30.484Z,1.27
2018-12-07T04:02:36.310Z,1.00
2018-12-07T04:07:42.077Z,0.70
2018-12-07T04:12:47.929Z,0.73
2018-12-07T04:17:53.352Z,0.60
2018-12-07T04:22:58.632Z,0.60
2018-12-07T04:28:04.100Z,0.60
2018-12-07T04:33:09.467Z,0.77
2018-12-07T04:38:14.819Z,0.40
2018-12-07T04:43:20.318Z,0.50
2018-12-07T04:48:25.621Z,0.50
2018-12-07T04:53:31.102Z,0.40
2018-12-07T04:58:36.497Z,0.40
2018-12-07T05:03:42.018Z,0.40
2018-12-07T05:08:47.475Z,0.37
2018-12-07T05:13:53.448Z,0.67
2018-12-07T05:18:58.884Z,0.80
2018-12-07T05:24:04.445Z,0.60
2018-12-07T05:29:09.846Z,0.50
2018-12-07T05:34:15.905Z,0.57
2018-12-07T05:39:21.678Z,0.30
2018-12-07T05:44:27.072Z,0.50
2018-12-07T05:49:32.585Z,0.40
2018-12-07T05:54:37.947Z,0.30
2018-12-07T05:59:43.355Z,0.40
2018-12-07T06:04:48.862Z,0.30
2018-12-07T06:09:55.080Z,0.30
2018-12-07T06:15:00.705Z,0.37
2018-12-07T06:20:07.141Z,0.20
2018-12-07T06:25:12.513Z,0.23
2018-12-07T06:30:17.760Z,0.40
2018-12-07T06:35:23.120Z,0.40
2018-12-07T06:40:28.752Z,0.27
2018-12-07T06:45:35.170Z,0.40
2018-12-07T06:50:41.049Z,0.30
2018-12-07T06:55:46.607Z,0.30
2018-12-07T07:00:53.278Z,0.30
2018-12-07T07:05:58.816Z,0.20
2018-12-07T07:11:05.796Z,0.20
2018-12-07T07:16:11.435Z,0.30
2018-12-07T07:21:16.931Z,0.20
2018-12-07T07:26:22.381Z,0.20
2018-12-07T07:31:27.630Z,0.30
2018-12-07T07:36:33.285Z,0.20
2018-12-07T07:41:39.437Z,0.40
2018-12-07T07:46:45.098Z,0.30
2018-12-07T07:51:50.467Z,0.30
2018-12-07T07:56:56.010Z,0.47
2018-12-07T08:02:01.809Z,0.30
2018-12-07T08:07:07.717Z,0.40
2018-12-07T08:12:13.296Z,0.40
2018-12-07T08:17:18.797Z,0.30
2018-12-07T08:22:24.758Z,0.30
2018-12-07T08:27:30.839Z,0.50
2018-12-07T08:32:36.238Z,0.40
2018-12-07T08:37:41.716Z,0.50
2018-12-07T08:42:48.533Z,0.50
2018-12-07T08:47:54.947Z,0.40
2018-12-07T08:53:00.491Z,0.63
2018-12-07T08:58:06.779Z,0.30
2018-12-07T09:03:12.169Z,0.30
2018-12-07T09:08:17.650Z,0.50
2018-12-07T09:13:23.485Z,0.43
2018-12-07T09:18:29.306Z,0.50
2018-12-07T09:23:34.567Z,0.30
2018-12-07T09:28:40.490Z,0.20
2018-12-07T09:33:45.907Z,0.30
2018-12-07T09:38:51.366Z,0.30
2018-12-07T09:43:56.731Z,0.30
2018-12-07T09:49:02.069Z,0.43
2018-12-07T09:54:07.328Z,0.40
2018-12-07T09:59:12.832Z,0.50
2018-12-07T10:04:18.472Z,0.50
2018-12-07T10:09:25.032Z,0.50
2018-12-07T10:14:30.416Z,0.60
2018-12-07T10:19:36.074Z,0.90
2018-12-07T10:24:43.892Z,0.63
2018-12-07T10:29:49.292Z,0.70
2018-12-07T10:34:54.715Z,0.70
2018-12-07T10:40:00.196Z,0.80
2018-12-07T10:45:06.480Z,0.50
2018-12-07T10:50:11.993Z,0.63
2018-12-07T10:55:17.626Z,1.13
2018-12-07T11:00:28.569Z,1.00
2018-12-07T11:05:40.769Z,0.90
2018-12-07T11:10:51.572Z,0.80
2018-12-07T11:16:02.672Z,0.80
2018-12-07T11:22:12.214Z,0.80
2018-12-07T11:27:23.188Z,1.00
2018-12-07T11:32:38.694Z,0.70
2018-12-07T11:37:44.595Z,0.80
2018-12-07T11:42:50.170Z,0.67
2018-12-07T11:47:55.893Z,0.93
2018-12-07T11:53:01.245Z,0.50
2018-12-07T11:58:06.677Z,1.00
2018-12-07T12:03:13.583Z,1.03
2018-12-07T12:08:19.056Z,0.60
2018-12-07T12:13:24.812Z,1.00
2018-12-07T12:18:30.210Z,0.60
2018-12-07T12:23:35.717Z,0.77
2018-12-07T12:28:41.318Z,0.70
2018-12-07T12:33:47.129Z,0.63
2018-12-07T12:38:52.633Z,0.70
2018-12-07T12:43:58.241Z,0.70
2018-12-07T12:49:05.882Z,0.73
2018-12-07T12:54:11.775Z,0.70
2018-12-07T12:59:17.132Z,0.80
2018-12-07T13:04:22.711Z,0.50
2018-12-07T13:09:28.206Z,0.70
2018-12-07T13:14:33.643Z,0.80
2018-12-07T13:19:39.164Z,0.67
2018-12-07T13:24:45.298Z,0.80
2018-12-07T13:29:50.904Z,1.50
2018-12-07T13:34:56.418Z,0.77
2018-12-07T13:40:02.348Z,0.63
2018-12-07T13:45:10.123Z,0.70
2018-12-07T13:50:21.174Z,1.07
2018-12-07T13:55:27.484Z,1.10
2018-12-07T14:00:35.546Z,0.87
2018-12-07T14:05:41.420Z,1.20
2018-12-07T14:10:47.425Z,0.80
2018-12-07T14:15:53.378Z,0.70
2018-12-07T14:20:58.995Z,0.50
2018-12-07T14:26:05.081Z,0.97
2018-12-07T14:31:10.966Z,0.50
2018-12-07T14:36:17.901Z,0.67
2018-12-07T14:41:23.376Z,2.57
2018-12-07T14:46:28.980Z,0.50
2018-12-07T14:51:36.114Z,2.47
2018-12-07T14:56:42.319Z,0.90
2018-12-07T15:01:48.280Z,0.60
2018-12-07T15:06:55.368Z,0.57
2018-12-07T15:12:01.127Z,0.87
2018-12-07T15:17:07.390Z,1.60
2018-12-07T15:22:13.310Z,1.13
2018-12-07T15:27:19.127Z,0.80
2018-12-07T15:32:25.011Z,0.60
2018-12-07T15:37:30.919Z,0.60
2018-12-07T15:42:36.858Z,0.30
2018-12-07T15:47:43.447Z,0.50
2018-12-07T15:52:49.387Z,0.73
2018-12-07T15:57:55.757Z,0.40
2018-12-07T16:03:01.754Z,0.70
2018-12-07T16:08:07.670Z,0.80
2018-12-07T16:13:14.249Z,0.40
2018-12-07T16:18:20.466Z,0.50
2018-12-07T16:23:26.619Z,0.50
2018-12-07T16:28:32.836Z,0.43
2018-12-07T16:33:38.819Z,0.60
2018-12-07T16:38:44.879Z,0.43
2018-12-07T16:43:50.919Z,0.33
2018-12-07T16:48:56.785Z,0.43
2018-12-07T16:54:02.729Z,0.37
2018-12-07T16:59:08.600Z,0.50
2018-12-07T17:04:14.520Z,0.70
2018-12-07T17:09:20.601Z,0.60
2018-12-07T17:14:26.711Z,0.40
2018-12-07T17:19:32.918Z,0.40
2018-12-07T17:24:38.986Z,0.60
2018-12-07T17:29:44.793Z,0.50
2018-12-07T17:34:50.788Z,0.37
2018-12-07T17:39:56.658Z,0.40
2018-12-07T17:45:02.606Z,0.57
2018-12-07T17:50:09.530Z,0.60
2018-12-07T17:55:15.660Z,2.33
2018-12-07T18:00:21.888Z,3.30
2018-12-07T18:05:28.123Z,0.20
2018-12-07T18:10:33.960Z,1.10
2018-12-07T18:15:41.169Z,0.30
2018-12-07T18:20:46.900Z,0.83
2018-12-07T18:25:53.441Z,0.53
2018-12-07T18:31:01.014Z,1.80
2018-12-07T18:36:08.105Z,0.73
2018-12-07T18:41:14.111Z,0.47
2018-12-07T18:46:20.572Z,0.50
2018-12-07T18:51:28.114Z,0.50
2018-12-07T18:56:40.068Z,0.40
2018-12-07T19:01:45.904Z,0.67
2018-12-07T19:06:53.365Z,0.80
2018-12-07T19:11:59.670Z,0.43
2018-12-07T19:17:05.942Z,0.60
2018-12-07T19:22:12.020Z,0.57
2018-12-07T19:27:18.842Z,0.60
2018-12-07T19:32:25.995Z,0.47
2018-12-07T19:37:32.722Z,0.90
2018-12-07T19:42:39.890Z,0.60
2018-12-07T19:47:46.383Z,0.40
2018-12-07T19:52:52.520Z,0.67
2018-12-07T19:57:59.890Z,0.50
2018-12-07T20:03:07.623Z,0.60
2018-12-07T20:08:14.609Z,1.07
2018-12-07T20:13:23.746Z,0.40
2018-12-07T20:18:29.696Z,0.60
2018-12-07T20:23:35.299Z,0.70
2018-12-07T20:28:40.826Z,0.40
2018-12-07T20:33:47.747Z,0.40
2018-12-07T20:38:54.497Z,0.40
2018-12-07T20:44:01.497Z,0.30
2018-12-07T20:49:07.801Z,0.60
2018-12-07T20:54:14.824Z,0.60
2018-12-07T20:59:21.435Z,0.40
2018-12-07T21:04:31.921Z,0.40
2018-12-07T21:09:38.597Z,0.73
2018-12-07T21:14:49.721Z,0.60
2018-12-07T21:20:09.725Z,0.27
2018-12-07T21:25:17.432Z,0.30
2018-12-07T21:30:50.342Z,0.77
2018-12-07T21:36:39.061Z,0.33
2018-12-07T21:41:45.249Z,0.40
2018-12-07T21:46:52.556Z,0.40
2018-12-07T21:52:34.062Z,0.40
2018-12-07T21:57:39.774Z,0.40
2018-12-07T22:02:46.277Z,0.63
2018-12-07T22:07:52.152Z,0.50
2018-12-07T22:12:58.779Z,0.40
2018-12-07T22:18:05.086Z,0.20
2018-12-07T22:23:11.440Z,0.20
2018-12-07T22:28:17.633Z,0.20
2018-12-07T22:33:23.556Z,0.20
2018-12-07T22:38:29.442Z,0.30
2018-12-07T22:43:35.324Z,0.30
2018-12-07T22:48:40.652Z,0.40
2018-12-07T22:53:46.173Z,0.33
2018-12-07T22:58:52.055Z,0.40
2018-12-07T23:03:58.178Z,0.40
2018-12-07T23:09:05.691Z,0.73
2018-12-07T23:14:12.034Z,0.30
2018-12-07T23:19:17.931Z,0.77
2018-12-07T23:24:23.580Z,0.40
2018-12-07T23:29:28.918Z,0.50
2018-12-07T23:34:34.394Z,0.57
2018-12-07T23:39:40.174Z,0.60
2018-12-07T23:44:45.564Z,1.10
2018-12-07T23:49:50.858Z,0.80
2018-12-07T23:54:56.297Z,0.50
